Seattle Tacoma International Airport
KSEA : now visible

Airfield :











YOU CAN JOIN US ON...

 
LOGIN :

Register | Disclaimer

   EN    FR    IT 

 









Legend :    VFR   Marginal VFR   IFR   Intensive IFR   Very Intensive IFR
Visi :
Ceiling :
>= 8 km
>= 3000ft
5 to 8 km
1000 to 3000 ft
1500m to 5 km
500 to 1000 ft
800 to 1500m
200 to 500 ft
< 800m
< 200 ft
Symbols :   Thunderstorms  Fog  Heavy snow  Heavy precipitations  Wind > 20 kt







- Airport Elevation : 433 ft
- IATA code : SEA


KSEA - Seattle Tacoma International

CURRENT METAR :
  • 260613Z 36009KT 7SM SCT006 BKN013 11/09 A2989 RMK AO2 T01110094

EXPIRED METARs :
  • 260553Z 36008KT 7SM BKN006 BKN021 12/09 A2990 RMK AO2 SLP130 60001 T01170094 10133 20111 51008
  • 260536Z 35009KT 7SM BKN006 BKN021 12/09 A2990 RMK AO2 T01170094
  • 260453Z 35007KT 10SM FEW006 BKN011 BKN025 11/09 A2990 RMK AO2 SLP129 T01110094
  • 260353Z 36007KT 10SM FEW014 FEW044 SCT200 12/09 A2988 RMK AO2 SLP123 T01170094

TAF KSEA
Valid from the 26 at 06:00 until the 27 at 12:00 UTC


260528Z 2606/2712 36007KT P6SM SCT012 BKN025
TEMPO 2606/2610 BKN007
FM261000 02006KT P6SM BKN009 OVC030
FM261600 03005KT P6SM SCT015 BKN025 BKN050
FM261900 02008KT P6SM SCT030 BKN200
FM262200 35009KT P6SM VCSH SCT040 BKN120 BKN200
FM270500 VRB05KT P6SM SCT120 SCT200
KZSE FIR / North America



MET'MAP, your aeronautical weather chart ! - Copyright ORBIFLY December 2007 - Disclaimer

ORBIFLY MET'MAP TEAM :

Programming & Development : Alexandra Zaïnal
Concept & Development : Baudouin d'Aumeries
Co-Development & Prog : Marc-Olivier Méhu
Technical & hardware support : Manuel Goepfert

Contact : metmap@orbifly.com




SOURCES & CREDITS :

   NOAA       Earth
Advisory